sensor_id;sensor_type;location;lat;lon;timestamp;P1;durP1;ratioP1;P2;durP2;ratioP2
20110;SDS011;10216;42.658;23.248;2022-08-23T00:01:48;34.90;;;26.70;;
20110;SDS011;10216;42.658;23.248;2022-08-23T00:04:16;40.07;;;27.70;;
20110;SDS011;10216;42.658;23.248;2022-08-23T00:06:47;39.17;;;28.00;;
20110;SDS011;10216;42.658;23.248;2022-08-23T00:09:14;32.57;;;26.60;;
20110;SDS011;10216;42.658;23.248;2022-08-23T00:11:42;44.23;;;26.30;;
20110;SDS011;10216;42.658;23.248;2022-08-23T00:14:15;32.77;;;25.63;;
20110;SDS011;10216;42.658;23.248;2022-08-23T00:16:43;31.20;;;25.90;;
20110;SDS011;10216;42.658;23.248;2022-08-23T00:19:10;38.13;;;26.90;;
20110;SDS011;10216;42.658;23.248;2022-08-23T00:21:37;36.57;;;26.97;;
20110;SDS011;10216;42.658;23.248;2022-08-23T00:24:04;34.87;;;27.20;;
20110;SDS011;10216;42.658;23.248;2022-08-23T00:29:22;36.50;;;26.80;;
20110;SDS011;10216;42.658;23.248;2022-08-23T00:31:50;34.30;;;26.37;;
20110;SDS011;10216;42.658;23.248;2022-08-23T00:34:16;42.67;;;27.60;;
20110;SDS011;10216;42.658;23.248;2022-08-23T00:36:41;42.53;;;28.43;;
20110;SDS011;10216;42.658;23.248;2022-08-23T00:39:09;62.37;;;28.27;;
20110;SDS011;10216;42.658;23.248;2022-08-23T00:41:35;53.03;;;28.70;;
20110;SDS011;10216;42.658;23.248;2022-08-23T00:44:01;40.77;;;27.00;;
20110;SDS011;10216;42.658;23.248;2022-08-23T00:46:46;36.93;;;25.60;;
20110;SDS011;10216;42.658;23.248;2022-08-23T00:49:49;38.20;;;25.73;;
20110;SDS011;10216;42.658;23.248;2022-08-23T00:52:39;31.57;;;25.20;;
20110;SDS011;10216;42.658;23.248;2022-08-23T00:55:10;30.63;;;24.73;;
20110;SDS011;10216;42.658;23.248;2022-08-23T00:57:36;34.73;;;24.63;;
20110;SDS011;10216;42.658;23.248;2022-08-23T01:00:04;34.43;;;25.43;;
20110;SDS011;10216;42.658;23.248;2022-08-23T01:02:33;38.07;;;26.63;;
20110;SDS011;10216;42.658;23.248;2022-08-23T01:05:00;36.17;;;25.93;;
20110;SDS011;10216;42.658;23.248;2022-08-23T01:10:34;40.07;;;26.07;;
20110;SDS011;10216;42.658;23.248;2022-08-23T01:13:14;36.33;;;26.77;;
20110;SDS011;10216;42.658;23.248;2022-08-23T01:15:47;35.33;;;26.43;;
20110;SDS011;10216;42.658;23.248;2022-08-23T01:18:21;34.07;;;26.43;;
20110;SDS011;10216;42.658;23.248;2022-08-23T01:20:53;33.07;;;25.47;;
20110;SDS011;10216;42.658;23.248;2022-08-23T01:25:52;34.30;;;25.17;;
20110;SDS011;10216;42.658;23.248;2022-08-23T01:28:18;35.43;;;25.27;;
20110;SDS011;10216;42.658;23.248;2022-08-23T01:30:43;38.30;;;26.37;;
20110;SDS011;10216;42.658;23.248;2022-08-23T01:33:11;38.27;;;26.03;;
20110;SDS011;10216;42.658;23.248;2022-08-23T01:35:38;28.43;;;24.87;;
20110;SDS011;10216;42.658;23.248;2022-08-23T01:38:06;37.57;;;26.50;;
20110;SDS011;10216;42.658;23.248;2022-08-23T01:40:32;39.63;;;26.33;;
20110;SDS011;10216;42.658;23.248;2022-08-23T01:42:59;46.10;;;25.30;;
20110;SDS011;10216;42.658;23.248;2022-08-23T01:45:26;45.73;;;26.57;;
20110;SDS011;10216;42.658;23.248;2022-08-23T01:47:52;40.50;;;26.13;;
20110;SDS011;10216;42.658;23.248;2022-08-23T01:50:17;46.33;;;27.20;;
20110;SDS011;10216;42.658;23.248;2022-08-23T01:52:43;31.87;;;25.27;;
20110;SDS011;10216;42.658;23.248;2022-08-23T01:55:09;37.50;;;26.63;;
20110;SDS011;10216;42.658;23.248;2022-08-23T01:57:35;44.27;;;28.00;;
20110;SDS011;10216;42.658;23.248;2022-08-23T02:00:05;38.97;;;27.60;;
20110;SDS011;10216;42.658;23.248;2022-08-23T02:02:31;42.10;;;27.67;;
20110;SDS011;10216;42.658;23.248;2022-08-23T02:04:56;38.00;;;28.37;;
20110;SDS011;10216;42.658;23.248;2022-08-23T02:07:25;41.47;;;28.53;;
20110;SDS011;10216;42.658;23.248;2022-08-23T02:09:51;40.43;;;29.33;;
20110;SDS011;10216;42.658;23.248;2022-08-23T02:12:17;46.20;;;28.20;;
20110;SDS011;10216;42.658;23.248;2022-08-23T02:14:42;52.00;;;28.73;;
20110;SDS011;10216;42.658;23.248;2022-08-23T02:17:08;37.07;;;28.30;;
20110;SDS011;10216;42.658;23.248;2022-08-23T02:19:33;42.40;;;28.77;;
20110;SDS011;10216;42.658;23.248;2022-08-23T02:22:00;44.17;;;29.63;;
20110;SDS011;10216;42.658;23.248;2022-08-23T02:24:25;50.73;;;30.27;;
20110;SDS011;10216;42.658;23.248;2022-08-23T02:26:52;48.77;;;30.43;;
20110;SDS011;10216;42.658;23.248;2022-08-23T02:29:22;52.50;;;30.13;;
20110;SDS011;10216;42.658;23.248;2022-08-23T02:31:49;47.27;;;30.17;;
20110;SDS011;10216;42.658;23.248;2022-08-23T02:34:15;66.77;;;31.30;;
20110;SDS011;10216;42.658;23.248;2022-08-23T02:36:43;51.37;;;31.50;;
20110;SDS011;10216;42.658;23.248;2022-08-23T02:39:09;57.37;;;32.33;;
20110;SDS011;10216;42.658;23.248;2022-08-23T02:41:37;47.77;;;30.57;;
20110;SDS011;10216;42.658;23.248;2022-08-23T02:44:04;51.53;;;30.57;;
20110;SDS011;10216;42.658;23.248;2022-08-23T02:46:29;48.17;;;30.30;;
20110;SDS011;10216;42.658;23.248;2022-08-23T02:48:55;54.10;;;29.70;;
20110;SDS011;10216;42.658;23.248;2022-08-23T02:51:21;52.33;;;31.03;;
20110;SDS011;10216;42.658;23.248;2022-08-23T02:53:47;50.70;;;31.57;;
20110;SDS011;10216;42.658;23.248;2022-08-23T02:56:13;45.97;;;30.03;;
20110;SDS011;10216;42.658;23.248;2022-08-23T02:58:39;47.43;;;29.23;;
20110;SDS011;10216;42.658;23.248;2022-08-23T03:01:12;38.83;;;29.27;;
20110;SDS011;10216;42.658;23.248;2022-08-23T03:03:39;40.77;;;29.73;;
20110;SDS011;10216;42.658;23.248;2022-08-23T03:06:04;44.03;;;29.97;;
20110;SDS011;10216;42.658;23.248;2022-08-23T03:08:30;50.07;;;30.90;;
20110;SDS011;10216;42.658;23.248;2022-08-23T03:10:55;61.87;;;32.07;;
20110;SDS011;10216;42.658;23.248;2022-08-23T03:13:21;46.70;;;30.77;;
20110;SDS011;10216;42.658;23.248;2022-08-23T03:15:49;37.17;;;28.07;;
20110;SDS011;10216;42.658;23.248;2022-08-23T03:18:14;39.93;;;28.33;;
20110;SDS011;10216;42.658;23.248;2022-08-23T03:20:40;44.73;;;27.43;;
20110;SDS011;10216;42.658;23.248;2022-08-23T03:23:07;37.03;;;27.77;;
20110;SDS011;10216;42.658;23.248;2022-08-23T03:25:33;36.70;;;27.93;;
20110;SDS011;10216;42.658;23.248;2022-08-23T03:28:01;41.83;;;28.53;;
20110;SDS011;10216;42.658;23.248;2022-08-23T03:30:28;37.07;;;28.27;;
20110;SDS011;10216;42.658;23.248;2022-08-23T03:32:54;45.13;;;27.87;;
20110;SDS011;10216;42.658;23.248;2022-08-23T03:35:19;42.80;;;27.50;;
20110;SDS011;10216;42.658;23.248;2022-08-23T03:37:45;33.63;;;27.37;;
20110;SDS011;10216;42.658;23.248;2022-08-23T03:40:10;33.07;;;25.50;;
20110;SDS011;10216;42.658;23.248;2022-08-23T03:42:36;40.07;;;27.17;;
20110;SDS011;10216;42.658;23.248;2022-08-23T03:45:02;32.17;;;25.80;;
20110;SDS011;10216;42.658;23.248;2022-08-23T03:47:27;30.87;;;25.33;;
20110;SDS011;10216;42.658;23.248;2022-08-23T03:49:53;35.40;;;25.47;;
20110;SDS011;10216;42.658;23.248;2022-08-23T03:52:18;32.00;;;25.37;;
20110;SDS011;10216;42.658;23.248;2022-08-23T03:54:44;34.07;;;25.90;;
20110;SDS011;10216;42.658;23.248;2022-08-23T03:57:10;31.03;;;25.67;;
20110;SDS011;10216;42.658;23.248;2022-08-23T03:59:37;34.27;;;26.50;;
20110;SDS011;10216;42.658;23.248;2022-08-23T04:02:05;39.27;;;25.43;;
20110;SDS011;10216;42.658;23.248;2022-08-23T04:04:31;30.33;;;25.20;;
20110;SDS011;10216;42.658;23.248;2022-08-23T04:06:56;29.93;;;24.17;;
20110;SDS011;10216;42.658;23.248;2022-08-23T04:09:22;28.20;;;23.37;;
20110;SDS011;10216;42.658;23.248;2022-08-23T04:11:47;27.10;;;22.60;;
20110;SDS011;10216;42.658;23.248;2022-08-23T04:14:13;25.37;;;22.23;;
20110;SDS011;10216;42.658;23.248;2022-08-23T04:16:39;25.83;;;23.03;;
20110;SDS011;10216;42.658;23.248;2022-08-23T04:19:06;25.47;;;21.47;;
20110;SDS011;10216;42.658;23.248;2022-08-23T04:21:35;25.47;;;21.57;;
20110;SDS011;10216;42.658;23.248;2022-08-23T04:24:02;27.03;;;21.93;;
20110;SDS011;10216;42.658;23.248;2022-08-23T04:26:28;25.77;;;22.27;;
20110;SDS011;10216;42.658;23.248;2022-08-23T04:28:54;25.80;;;21.43;;
20110;SDS011;10216;42.658;23.248;2022-08-23T04:31:20;26.23;;;21.80;;
20110;SDS011;10216;42.658;23.248;2022-08-23T04:33:46;30.50;;;22.63;;
20110;SDS011;10216;42.658;23.248;2022-08-23T04:36:11;28.37;;;23.10;;
20110;SDS011;10216;42.658;23.248;2022-08-23T04:38:37;27.50;;;22.07;;
20110;SDS011;10216;42.658;23.248;2022-08-23T04:41:04;27.20;;;23.07;;
20110;SDS011;10216;42.658;23.248;2022-08-23T04:43:48;26.57;;;21.63;;
20110;SDS011;10216;42.658;23.248;2022-08-23T04:46:14;25.83;;;22.53;;
20110;SDS011;10216;42.658;23.248;2022-08-23T04:48:41;25.60;;;22.17;;
20110;SDS011;10216;42.658;23.248;2022-08-23T04:51:08;26.93;;;21.83;;
20110;SDS011;10216;42.658;23.248;2022-08-23T04:53:34;25.13;;;21.47;;
20110;SDS011;10216;42.658;23.248;2022-08-23T04:56:01;25.83;;;21.93;;
20110;SDS011;10216;42.658;23.248;2022-08-23T04:58:27;28.87;;;21.43;;
20110;SDS011;10216;42.658;23.248;2022-08-23T05:00:53;27.50;;;22.93;;
20110;SDS011;10216;42.658;23.248;2022-08-23T05:03:19;30.07;;;23.47;;
20110;SDS011;10216;42.658;23.248;2022-08-23T05:05:45;26.70;;;22.57;;
20110;SDS011;10216;42.658;23.248;2022-08-23T05:08:10;27.07;;;22.23;;
20110;SDS011;10216;42.658;23.248;2022-08-23T05:10:36;29.77;;;23.13;;
20110;SDS011;10216;42.658;23.248;2022-08-23T05:13:01;29.70;;;22.43;;
20110;SDS011;10216;42.658;23.248;2022-08-23T05:15:26;26.23;;;23.13;;
20110;SDS011;10216;42.658;23.248;2022-08-23T05:17:52;25.40;;;22.50;;
20110;SDS011;10216;42.658;23.248;2022-08-23T05:20:17;33.60;;;24.47;;
20110;SDS011;10216;42.658;23.248;2022-08-23T05:22:45;27.83;;;23.43;;
20110;SDS011;10216;42.658;23.248;2022-08-23T05:25:11;40.33;;;27.60;;
20110;SDS011;10216;42.658;23.248;2022-08-23T05:27:36;37.70;;;28.90;;
20110;SDS011;10216;42.658;23.248;2022-08-23T05:30:02;35.67;;;27.80;;
20110;SDS011;10216;42.658;23.248;2022-08-23T05:32:29;40.47;;;28.10;;
20110;SDS011;10216;42.658;23.248;2022-08-23T05:34:55;37.13;;;29.60;;
20110;SDS011;10216;42.658;23.248;2022-08-23T05:37:21;43.57;;;32.70;;
20110;SDS011;10216;42.658;23.248;2022-08-23T05:39:46;44.57;;;33.77;;
20110;SDS011;10216;42.658;23.248;2022-08-23T05:42:12;46.33;;;33.83;;
20110;SDS011;10216;42.658;23.248;2022-08-23T05:44:39;42.33;;;33.53;;
20110;SDS011;10216;42.658;23.248;2022-08-23T05:47:07;39.47;;;30.53;;
20110;SDS011;10216;42.658;23.248;2022-08-23T05:49:34;44.57;;;34.20;;
20110;SDS011;10216;42.658;23.248;2022-08-23T05:52:04;48.27;;;34.37;;
20110;SDS011;10216;42.658;23.248;2022-08-23T05:54:31;47.50;;;35.33;;
20110;SDS011;10216;42.658;23.248;2022-08-23T05:56:57;40.43;;;34.17;;
20110;SDS011;10216;42.658;23.248;2022-08-23T05:59:22;38.30;;;33.17;;
20110;SDS011;10216;42.658;23.248;2022-08-23T06:01:47;40.13;;;33.13;;
20110;SDS011;10216;42.658;23.248;2022-08-23T06:04:14;37.43;;;32.63;;
20110;SDS011;10216;42.658;23.248;2022-08-23T06:06:41;37.57;;;32.17;;
20110;SDS011;10216;42.658;23.248;2022-08-23T06:09:08;35.07;;;30.40;;
20110;SDS011;10216;42.658;23.248;2022-08-23T06:11:35;34.80;;;31.03;;
20110;SDS011;10216;42.658;23.248;2022-08-23T06:14:02;36.40;;;31.70;;
20110;SDS011;10216;42.658;23.248;2022-08-23T06:16:32;36.03;;;32.03;;
20110;SDS011;10216;42.658;23.248;2022-08-23T06:19:01;36.77;;;31.80;;
20110;SDS011;10216;42.658;23.248;2022-08-23T06:21:27;36.30;;;31.70;;
20110;SDS011;10216;42.658;23.248;2022-08-23T06:23:53;33.57;;;29.93;;
20110;SDS011;10216;42.658;23.248;2022-08-23T06:28:47;33.37;;;27.73;;
20110;SDS011;10216;42.658;23.248;2022-08-23T06:31:14;32.10;;;28.50;;
20110;SDS011;10216;42.658;23.248;2022-08-23T06:34:01;30.37;;;27.27;;
20110;SDS011;10216;42.658;23.248;2022-08-23T06:36:26;29.53;;;26.50;;
20110;SDS011;10216;42.658;23.248;2022-08-23T06:38:52;30.40;;;27.10;;
20110;SDS011;10216;42.658;23.248;2022-08-23T06:41:18;27.93;;;24.90;;
20110;SDS011;10216;42.658;23.248;2022-08-23T06:43:43;26.87;;;24.03;;
20110;SDS011;10216;42.658;23.248;2022-08-23T06:46:10;26.80;;;23.90;;
20110;SDS011;10216;42.658;23.248;2022-08-23T06:48:41;27.50;;;23.13;;
20110;SDS011;10216;42.658;23.248;2022-08-23T06:51:09;26.13;;;23.37;;
20110;SDS011;10216;42.658;23.248;2022-08-23T06:53:36;26.60;;;22.50;;
20110;SDS011;10216;42.658;23.248;2022-08-23T06:56:01;24.30;;;22.00;;
20110;SDS011;10216;42.658;23.248;2022-08-23T06:58:27;23.97;;;21.53;;
20110;SDS011;10216;42.658;23.248;2022-08-23T07:00:52;23.97;;;21.57;;
20110;SDS011;10216;42.658;23.248;2022-08-23T07:03:18;24.00;;;21.50;;
20110;SDS011;10216;42.658;23.248;2022-08-23T07:05:43;23.80;;;21.20;;
20110;SDS011;10216;42.658;23.248;2022-08-23T07:08:09;22.90;;;20.60;;
20110;SDS011;10216;42.658;23.248;2022-08-23T07:10:34;23.47;;;21.17;;
20110;SDS011;10216;42.658;23.248;2022-08-23T07:13:01;22.40;;;20.00;;
20110;SDS011;10216;42.658;23.248;2022-08-23T07:15:26;23.80;;;20.93;;
20110;SDS011;10216;42.658;23.248;2022-08-23T07:17:53;23.00;;;20.70;;
20110;SDS011;10216;42.658;23.248;2022-08-23T07:20:20;22.10;;;19.80;;
20110;SDS011;10216;42.658;23.248;2022-08-23T07:22:45;22.27;;;20.03;;
20110;SDS011;10216;42.658;23.248;2022-08-23T07:25:11;24.40;;;21.17;;
20110;SDS011;10216;42.658;23.248;2022-08-23T07:27:36;23.93;;;19.90;;
20110;SDS011;10216;42.658;23.248;2022-08-23T07:30:03;22.20;;;19.77;;
20110;SDS011;10216;42.658;23.248;2022-08-23T07:32:29;22.13;;;19.97;;
20110;SDS011;10216;42.658;23.248;2022-08-23T07:34:55;23.40;;;21.03;;
20110;SDS011;10216;42.658;23.248;2022-08-23T07:37:20;23.03;;;20.57;;
20110;SDS011;10216;42.658;23.248;2022-08-23T07:39:46;23.27;;;20.87;;
20110;SDS011;10216;42.658;23.248;2022-08-23T07:42:12;24.93;;;21.73;;
20110;SDS011;10216;42.658;23.248;2022-08-23T07:44:37;22.73;;;20.53;;
20110;SDS011;10216;42.658;23.248;2022-08-23T07:47:03;23.60;;;21.20;;
20110;SDS011;10216;42.658;23.248;2022-08-23T07:49:28;23.60;;;21.13;;
20110;SDS011;10216;42.658;23.248;2022-08-23T07:51:56;27.23;;;21.07;;
20110;SDS011;10216;42.658;23.248;2022-08-23T07:54:23;21.10;;;19.00;;
20110;SDS011;10216;42.658;23.248;2022-08-23T07:56:49;22.10;;;19.70;;
20110;SDS011;10216;42.658;23.248;2022-08-23T07:59:15;19.83;;;17.80;;
20110;SDS011;10216;42.658;23.248;2022-08-23T08:01:43;25.87;;;19.43;;
20110;SDS011;10216;42.658;23.248;2022-08-23T08:04:09;20.37;;;18.37;;
20110;SDS011;10216;42.658;23.248;2022-08-23T08:06:40;21.17;;;18.97;;
20110;SDS011;10216;42.658;23.248;2022-08-23T08:09:12;21.03;;;18.57;;
20110;SDS011;10216;42.658;23.248;2022-08-23T08:11:40;20.30;;;18.13;;
20110;SDS011;10216;42.658;23.248;2022-08-23T08:14:09;20.40;;;18.30;;
20110;SDS011;10216;42.658;23.248;2022-08-23T08:16:40;19.80;;;17.93;;
20110;SDS011;10216;42.658;23.248;2022-08-23T08:19:08;19.67;;;17.67;;
20110;SDS011;10216;42.658;23.248;2022-08-23T08:21:35;19.93;;;17.80;;
20110;SDS011;10216;42.658;23.248;2022-08-23T08:24:02;21.10;;;19.03;;
20110;SDS011;10216;42.658;23.248;2022-08-23T08:26:28;21.27;;;19.07;;
20110;SDS011;10216;42.658;23.248;2022-08-23T08:28:54;20.23;;;18.13;;
20110;SDS011;10216;42.658;23.248;2022-08-23T08:31:20;20.83;;;18.57;;
20110;SDS011;10216;42.658;23.248;2022-08-23T08:33:47;19.73;;;17.83;;
20110;SDS011;10216;42.658;23.248;2022-08-23T08:38:53;21.33;;;19.13;;
20110;SDS011;10216;42.658;23.248;2022-08-23T08:41:18;23.20;;;18.67;;
20110;SDS011;10216;42.658;23.248;2022-08-23T08:44:11;20.03;;;18.13;;
20110;SDS011;10216;42.658;23.248;2022-08-23T08:46:50;21.17;;;18.93;;
20110;SDS011;10216;42.658;23.248;2022-08-23T08:49:28;19.77;;;17.73;;
20110;SDS011;10216;42.658;23.248;2022-08-23T08:52:21;19.50;;;17.43;;
20110;SDS011;10216;42.658;23.248;2022-08-23T08:54:49;20.10;;;18.10;;
20110;SDS011;10216;42.658;23.248;2022-08-23T08:57:23;20.20;;;18.20;;
20110;SDS011;10216;42.658;23.248;2022-08-23T08:59:59;22.30;;;19.23;;
20110;SDS011;10216;42.658;23.248;2022-08-23T09:02:32;21.53;;;17.53;;
20110;SDS011;10216;42.658;23.248;2022-08-23T09:05:03;20.23;;;17.43;;
20110;SDS011;10216;42.658;23.248;2022-08-23T09:18:35;16.83;;;15.30;;
20110;SDS011;10216;42.658;23.248;2022-08-23T09:21:01;17.13;;;15.32;;
20110;SDS011;10216;42.658;23.248;2022-08-23T09:23:32;17.00;;;15.25;;
20110;SDS011;10216;42.658;23.248;2022-08-23T09:26:02;17.00;;;15.20;;
20110;SDS011;10216;42.658;23.248;2022-08-23T09:28:41;15.25;;;13.82;;
20110;SDS011;10216;42.658;23.248;2022-08-23T09:31:09;16.70;;;14.93;;
20110;SDS011;10216;42.658;23.248;2022-08-23T09:33:40;15.23;;;13.88;;
20110;SDS011;10216;42.658;23.248;2022-08-23T09:38:57;15.35;;;12.57;;
20110;SDS011;10216;42.658;23.248;2022-08-23T09:41:25;13.13;;;11.93;;
20110;SDS011;10216;42.658;23.248;2022-08-23T09:43:53;13.75;;;12.35;;
20110;SDS011;10216;42.658;23.248;2022-08-23T09:46:23;13.43;;;12.15;;
20110;SDS011;10216;42.658;23.248;2022-08-23T09:48:53;12.88;;;11.57;;
20110;SDS011;10216;42.658;23.248;2022-08-23T09:51:28;13.02;;;11.73;;
20110;SDS011;10216;42.658;23.248;2022-08-23T09:54:05;11.52;;;10.43;;
20110;SDS011;10216;42.658;23.248;2022-08-23T09:56:35;12.50;;;10.63;;
20110;SDS011;10216;42.658;23.248;2022-08-23T09:59:17;13.43;;;10.38;;
20110;SDS011;10216;42.658;23.248;2022-08-23T10:01:46;13.30;;;10.95;;
20110;SDS011;10216;42.658;23.248;2022-08-23T10:04:16;12.85;;;11.52;;
20110;SDS011;10216;42.658;23.248;2022-08-23T10:06:49;12.02;;;10.93;;
20110;SDS011;10216;42.658;23.248;2022-08-23T10:09:29;13.55;;;11.48;;
20110;SDS011;10216;42.658;23.248;2022-08-23T10:11:57;12.80;;;11.48;;
20110;SDS011;10216;42.658;23.248;2022-08-23T10:14:24;13.93;;;11.57;;
20110;SDS011;10216;42.658;23.248;2022-08-23T10:16:56;11.27;;;10.27;;
20110;SDS011;10216;42.658;23.248;2022-08-23T10:19:52;12.43;;;11.23;;
20110;SDS011;10216;42.658;23.248;2022-08-23T10:22:25;12.45;;;11.20;;
20110;SDS011;10216;42.658;23.248;2022-08-23T10:33:41;9.73;;;8.82;;
20110;SDS011;10216;42.658;23.248;2022-08-23T10:36:30;11.77;;;8.52;;
20110;SDS011;10216;42.658;23.248;2022-08-23T10:39:05;9.35;;;8.45;;
20110;SDS011;10216;42.658;23.248;2022-08-23T10:47:00;9.45;;;8.10;;
20110;SDS011;10216;42.658;23.248;2022-08-23T10:49:41;8.40;;;7.57;;
20110;SDS011;10216;42.658;23.248;2022-08-23T10:52:08;8.55;;;7.85;;
20110;SDS011;10216;42.658;23.248;2022-08-23T10:54:44;9.50;;;8.68;;
20110;SDS011;10216;42.658;23.248;2022-08-23T10:57:27;9.75;;;8.85;;
20110;SDS011;10216;42.658;23.248;2022-08-23T10:59:57;10.05;;;9.15;;
20110;SDS011;10216;42.658;23.248;2022-08-23T11:05:23;9.50;;;8.60;;
20110;SDS011;10216;42.658;23.248;2022-08-23T11:07:55;9.60;;;8.50;;
20110;SDS011;10216;42.658;23.248;2022-08-23T11:10:25;11.52;;;8.88;;
20110;SDS011;10216;42.658;23.248;2022-08-23T11:21:40;9.60;;;8.65;;
20110;SDS011;10216;42.658;23.248;2022-08-23T11:31:42;10.02;;;9.02;;
20110;SDS011;10216;42.658;23.248;2022-08-23T11:37:50;10.40;;;9.32;;
20110;SDS011;10216;42.658;23.248;2022-08-23T11:45:01;10.45;;;8.82;;
20110;SDS011;10216;42.658;23.248;2022-08-23T11:47:37;8.82;;;8.07;;
20110;SDS011;10216;42.658;23.248;2022-08-23T11:50:16;9.27;;;8.38;;
20110;SDS011;10216;42.658;23.248;2022-08-23T11:58:42;8.82;;;8.07;;
20110;SDS011;10216;42.658;23.248;2022-08-23T12:01:36;8.32;;;7.63;;
20110;SDS011;10216;42.658;23.248;2022-08-23T12:06:59;10.02;;;8.20;;
20110;SDS011;10216;42.658;23.248;2022-08-23T12:17:53;9.15;;;8.30;;
20110;SDS011;10216;42.658;23.248;2022-08-23T12:19:59;8.95;;;8.15;;
20110;SDS011;10216;42.658;23.248;2022-08-23T12:25:28;9.98;;;8.25;;
20110;SDS011;10216;42.658;23.248;2022-08-23T12:31:03;10.35;;;8.10;;
20110;SDS011;10216;42.658;23.248;2022-08-23T12:41:12;8.60;;;7.80;;
20110;SDS011;10216;42.658;23.248;2022-08-23T12:43:52;9.82;;;8.40;;
20110;SDS011;10216;42.658;23.248;2022-08-23T12:46:40;10.10;;;9.00;;
20110;SDS011;10216;42.658;23.248;2022-08-23T12:49:08;9.57;;;8.68;;
20110;SDS011;10216;42.658;23.248;2022-08-23T12:51:49;9.77;;;8.43;;
20110;SDS011;10216;42.658;23.248;2022-08-23T12:54:21;12.27;;;8.65;;
20110;SDS011;10216;42.658;23.248;2022-08-23T12:56:55;9.32;;;8.43;;
20110;SDS011;10216;42.658;23.248;2022-08-23T12:59:35;9.77;;;8.80;;
20110;SDS011;10216;42.658;23.248;2022-08-23T13:02:05;12.45;;;8.98;;
20110;SDS011;10216;42.658;23.248;2022-08-23T13:04:36;9.77;;;8.82;;
20110;SDS011;10216;42.658;23.248;2022-08-23T13:07:06;8.18;;;7.38;;
20110;SDS011;10216;42.658;23.248;2022-08-23T13:09:36;8.20;;;5.50;;
20110;SDS011;10216;42.658;23.248;2022-08-23T13:12:04;5.70;;;5.20;;
20110;SDS011;10216;42.658;23.248;2022-08-23T13:19:36;7.60;;;6.18;;
20110;SDS011;10216;42.658;23.248;2022-08-23T13:22:09;7.43;;;6.35;;
20110;SDS011;10216;42.658;23.248;2022-08-23T13:24:39;6.68;;;6.07;;
20110;SDS011;10216;42.658;23.248;2022-08-23T13:27:11;7.70;;;7.00;;
20110;SDS011;10216;42.658;23.248;2022-08-23T13:32:27;8.45;;;7.65;;
20110;SDS011;10216;42.658;23.248;2022-08-23T13:37:59;12.73;;;9.57;;
20110;SDS011;10216;42.658;23.248;2022-08-23T13:40:37;11.50;;;9.10;;
20110;SDS011;10216;42.658;23.248;2022-08-23T13:43:06;10.40;;;9.30;;
20110;SDS011;10216;42.658;23.248;2022-08-23T13:45:36;10.20;;;9.13;;
20110;SDS011;10216;42.658;23.248;2022-08-23T13:48:13;11.80;;;9.90;;
20110;SDS011;10216;42.658;23.248;2022-08-23T13:50:45;10.70;;;9.70;;
20110;SDS011;10216;42.658;23.248;2022-08-23T13:53:13;11.03;;;10.03;;
20110;SDS011;10216;42.658;23.248;2022-08-23T13:55:50;12.27;;;9.90;;
20110;SDS011;10216;42.658;23.248;2022-08-23T13:58:31;10.73;;;9.60;;
20110;SDS011;10216;42.658;23.248;2022-08-23T14:00:58;11.17;;;9.93;;
20110;SDS011;10216;42.658;23.248;2022-08-23T14:03:26;11.77;;;10.57;;
20110;SDS011;10216;42.658;23.248;2022-08-23T14:05:53;14.50;;;11.63;;
20110;SDS011;10216;42.658;23.248;2022-08-23T14:08:19;14.93;;;11.70;;
20110;SDS011;10216;42.658;23.248;2022-08-23T14:10:45;13.33;;;11.80;;
20110;SDS011;10216;42.658;23.248;2022-08-23T14:13:11;13.87;;;12.37;;
20110;SDS011;10216;42.658;23.248;2022-08-23T14:15:39;16.23;;;12.70;;
20110;SDS011;10216;42.658;23.248;2022-08-23T14:18:06;14.43;;;12.90;;
20110;SDS011;10216;42.658;23.248;2022-08-23T14:20:32;13.60;;;12.40;;
20110;SDS011;10216;42.658;23.248;2022-08-23T14:22:58;15.20;;;13.40;;
20110;SDS011;10216;42.658;23.248;2022-08-23T14:25:24;15.27;;;12.87;;
20110;SDS011;10216;42.658;23.248;2022-08-23T14:27:50;14.03;;;12.73;;
20110;SDS011;10216;42.658;23.248;2022-08-23T14:30:28;14.70;;;12.93;;
20110;SDS011;10216;42.658;23.248;2022-08-23T14:32:56;14.40;;;12.93;;
20110;SDS011;10216;42.658;23.248;2022-08-23T14:35:22;13.87;;;12.47;;
20110;SDS011;10216;42.658;23.248;2022-08-23T14:37:48;13.37;;;12.00;;
20110;SDS011;10216;42.658;23.248;2022-08-23T14:40:13;13.57;;;12.30;;
20110;SDS011;10216;42.658;23.248;2022-08-23T14:42:39;15.77;;;13.10;;
20110;SDS011;10216;42.658;23.248;2022-08-23T14:45:05;14.90;;;13.40;;
20110;SDS011;10216;42.658;23.248;2022-08-23T14:47:31;14.90;;;12.33;;
20110;SDS011;10216;42.658;23.248;2022-08-23T14:49:59;15.40;;;12.90;;
20110;SDS011;10216;42.658;23.248;2022-08-23T14:52:25;15.27;;;12.93;;
20110;SDS011;10216;42.658;23.248;2022-08-23T14:54:50;14.20;;;12.70;;
20110;SDS011;10216;42.658;23.248;2022-08-23T14:57:16;13.40;;;12.20;;
20110;SDS011;10216;42.658;23.248;2022-08-23T14:59:41;14.33;;;12.83;;
20110;SDS011;10216;42.658;23.248;2022-08-23T15:02:07;14.30;;;12.80;;
20110;SDS011;10216;42.658;23.248;2022-08-23T15:04:35;14.33;;;13.03;;
20110;SDS011;10216;42.658;23.248;2022-08-23T15:07:02;14.97;;;13.33;;
20110;SDS011;10216;42.658;23.248;2022-08-23T15:09:29;17.03;;;13.40;;
20110;SDS011;10216;42.658;23.248;2022-08-23T15:11:54;13.77;;;12.37;;
20110;SDS011;10216;42.658;23.248;2022-08-23T15:14:20;14.63;;;13.07;;
20110;SDS011;10216;42.658;23.248;2022-08-23T15:16:45;15.03;;;13.33;;
20110;SDS011;10216;42.658;23.248;2022-08-23T15:19:10;15.50;;;13.97;;
20110;SDS011;10216;42.658;23.248;2022-08-23T15:21:36;14.90;;;13.30;;
20110;SDS011;10216;42.658;23.248;2022-08-23T15:24:04;13.73;;;12.50;;
20110;SDS011;10216;42.658;23.248;2022-08-23T15:26:29;14.17;;;12.73;;
20110;SDS011;10216;42.658;23.248;2022-08-23T15:28:55;16.80;;;12.67;;
20110;SDS011;10216;42.658;23.248;2022-08-23T15:31:21;14.23;;;12.77;;
20110;SDS011;10216;42.658;23.248;2022-08-23T15:33:46;14.57;;;13.17;;
20110;SDS011;10216;42.658;23.248;2022-08-23T15:36:13;16.67;;;12.73;;
20110;SDS011;10216;42.658;23.248;2022-08-23T15:38:39;15.17;;;13.67;;
20110;SDS011;10216;42.658;23.248;2022-08-23T15:41:05;15.03;;;13.53;;
20110;SDS011;10216;42.658;23.248;2022-08-23T15:43:31;16.13;;;14.43;;
20110;SDS011;10216;42.658;23.248;2022-08-23T15:45:57;15.53;;;13.97;;
20110;SDS011;10216;42.658;23.248;2022-08-23T15:48:28;20.90;;;14.90;;
20110;SDS011;10216;42.658;23.248;2022-08-23T15:50:58;16.43;;;14.60;;
20110;SDS011;10216;42.658;23.248;2022-08-23T15:53:24;15.40;;;14.00;;
20110;SDS011;10216;42.658;23.248;2022-08-23T15:55:50;16.33;;;14.67;;
20110;SDS011;10216;42.658;23.248;2022-08-23T15:58:23;15.33;;;13.93;;
20110;SDS011;10216;42.658;23.248;2022-08-23T16:00:50;16.27;;;14.70;;
20110;SDS011;10216;42.658;23.248;2022-08-23T16:03:16;15.50;;;13.93;;
20110;SDS011;10216;42.658;23.248;2022-08-23T16:05:43;16.50;;;14.80;;
20110;SDS011;10216;42.658;23.248;2022-08-23T16:08:18;15.43;;;13.83;;
20110;SDS011;10216;42.658;23.248;2022-08-23T16:10:51;14.43;;;12.50;;